Погода Карибибна неделю

Эронго, Намибия

22 - 28 февраля
  • 22февраля
    Сегодня
    +23°
    +38°
    Небольшая облачность
    ВремяПогодаТемператураВлажностьДавлениеВетер, м/сВероятность осадков
    02:00Практически безоблачно+25°C37 %666 мм1.4 м/с5 %
    05:00Практически безоблачно+23°C37 %664 мм1.9 м/с5 %
    08:00Практически безоблачно+25°C31 %666 мм2.4 м/с5 %
    11:00Практически безоблачно+35°C21 %668 мм2.0 м/с5 %
    14:00Небольшая облачность+38°C17 %667 мм1.9 м/с5 %
    17:00Небольшая облачность+37°C17 %666 мм4.0 м/с3 %
    20:00Небольшая облачность+31°C24 %667 мм4.7 м/с8 %
    23:00Практически безоблачно+28°C27 %667 мм1.4 м/с3 %
  • 23февраля
    Пятница
    +20°
    +39°
    Облачно с прояснениями
    ВремяПогодаТемператураВлажностьДавлениеВетер, м/сВероятность осадков
    02:00Небольшая облачность+25°C34 %666 мм0.5 м/с1 %
    05:00Облачно с прояснениями+24°C38 %665 мм1.3 м/с3 %
    08:00Облачно с прояснениями+25°C41 %666 мм2.1 м/с5 %
    11:00Облачно с прояснениями+33°C23 %668 мм3.8 м/с5 %
    14:00Облачно с прояснениями+37°C17 %666 мм3.1 м/с5 %
    17:00Практически безоблачно+35°C20 %666 мм5.9 м/с16 %
    20:00Практически безоблачно+29°C21 %667 мм5.0 м/с12 %
    23:00Ясно и безоблачно+26°C26 %668 мм2.9 м/с11 %
  • 24февраля
    Суббота
    +19°
    +38°
    Небольшая облачность
    ВремяПогодаТемператураВлажностьДавлениеВетер, м/сВероятность осадков
    02:00Небольшая облачность+23°C27 %666 мм1.6 м/с9 %
    05:00Ясно и безоблачно+22°C29 %666 мм0.8 м/с15 %
    08:00Ясно и безоблачно+23°C29 %668 мм1.3 м/с11 %
    11:00Ясно и безоблачно+31°C16 %670 мм1.0 м/с7 %
    14:00Небольшая облачность+37°C16 %668 мм3.6 м/с8 %
    17:00Практически безоблачно+34°C19 %667 мм9.0 м/с9 %
    20:00Ясно и безоблачно+27°C28 %668 мм5.7 м/с9 %
    23:00Ясно и безоблачно+24°C33 %668 мм2.8 м/с4 %
  • 25февраля
    Воскресенье
    +19°
    +38°
    Ясно и безоблачно
    ВремяПогодаТемператураВлажностьДавлениеВетер, м/сВероятность осадков
    02:00Ясно и безоблачно+21°C37 %667 мм0.6 м/с4 %
    05:00Ясно и безоблачно+20°C35 %666 мм1.8 м/с10 %
    08:00Ясно и безоблачно+22°C28 %668 мм1.1 м/с5 %
    11:00Ясно и безоблачно+33°C10 %670 мм1.3 м/с5 %
    14:00Ясно и безоблачно+38°C8 %669 мм3.6 м/с5 %
    17:00Небольшая облачность+36°C11 %668 мм7.3 м/с5 %
    20:00Ясно и безоблачно+29°C24 %668 мм6.0 м/с5 %
    23:00Ясно и безоблачно+24°C29 %668 мм3.2 м/с4 %
  • 26февраля
    Понедельник
    +20°
    +39°
    Ясно и безоблачно
    ВремяПогодаТемператураВлажностьДавлениеВетер, м/сВероятность осадков
    02:00Ясно и безоблачно+22°C34 %667 мм0.5 м/с5 %
    05:00Ясно и безоблачно+21°C34 %666 мм1.3 м/с14 %
    08:00Ясно и безоблачно+22°C32 %667 мм1.9 м/с9 %
    11:00Ясно и безоблачно+33°C15 %669 мм1.3 м/с5 %
    14:00Ясно и безоблачно+38°C10 %668 мм4.0 м/с3 %
    17:00Ясно и безоблачно+34°C16 %667 мм9.4 м/с14 %
    20:00Ясно и безоблачно+27°C26 %667 мм5.8 м/с22 %
    23:00Ясно и безоблачно+24°C30 %667 мм2.7 м/с13 %
Мы используем cookies
Соглашаюсь